Time;durP1;ratioP1;P1;durP2;ratioP2;P2;SDS_P1;SDS_P2;PMS_P1;PMS_P2;Temp;Humidity;BMP_temperature;BMP_pressure;BME280_temperature;BME280_humidity;BME280_pressure;Samples;Min_cycle;Max_cycle;Signal;HPM_P1;HPM_P2
2022/08/14 00:00:39;;;;;;;3.45;2.88;;;18.40;78.50;;;;;;5071497;28;20024;-75
2022/08/14 00:03:04;;;;;;;2.65;2.42;;;18.40;78.50;;;;;;5087773;28;20031;-76
2022/08/14 00:05:30;;;;;;;3.95;2.67;;;18.40;78.70;;;;;;5075680;28;20081;-75
2022/08/14 00:07:56;;;;;;;2.92;2.63;;;18.40;79.30;;;;;;5113015;28;20028;-75
2022/08/14 00:10:22;;;;;;;4.63;2.80;;;18.30;79.70;;;;;;5112335;28;20544;-76
2022/08/14 00:12:53;;;;;;;3.38;2.47;;;18.20;80.10;;;;;;5101332;28;20047;-75
2022/08/14 00:15:24;;;;;;;2.35;2.15;;;18.20;80.50;;;;;;5053888;28;20029;-79
2022/08/14 00:17:51;;;;;;;2.33;2.13;;;18.10;80.70;;;;;;5068625;28;20051;-75
2022/08/14 00:20:20;;;;;;;2.83;2.20;;;18.00;81.00;;;;;;5054315;28;20108;-74
2022/08/14 00:22:46;;;;;;;3.20;2.17;;;18.00;81.20;;;;;;5072367;28;20021;-75
2022/08/14 00:25:12;;;;;;;2.47;2.28;;;18.00;81.10;;;;;;5072756;28;20060;-75
2022/08/14 00:27:37;;;;;;;2.63;2.33;;;18.00;80.90;;;;;;5072594;28;20033;-76
2022/08/14 00:30:07;;;;;;;4.10;2.10;;;18.00;81.40;;;;;;5087532;28;20028;-75
2022/08/14 00:32:34;;;;;;;3.13;2.83;;;17.90;81.50;;;;;;5072275;28;20082;-75
2022/08/14 00:35:00;;;;;;;1.90;1.80;;;17.90;81.60;;;;;;5072787;28;20042;-76
2022/08/14 00:37:30;;;;;;;2.30;2.17;;;17.80;81.70;;;;;;5080415;28;20118;-76
2022/08/14 00:39:56;;;;;;;2.63;1.98;;;17.80;82.30;;;;;;5095988;28;20484;-76
2022/08/14 00:42:23;;;;;;;3.13;2.20;;;17.70;82.70;;;;;;5107392;28;20020;-80
2022/08/14 00:44:49;;;;;;;2.42;2.15;;;17.70;83.00;;;;;;5105559;28;20024;-77
2022/08/14 00:47:16;;;;;;;3.65;2.35;;;17.70;83.40;;;;;;5094260;28;20056;-76
2022/08/14 00:49:43;;;;;;;2.58;1.95;;;17.70;83.50;;;;;;5108557;28;20180;-76
2022/08/14 00:52:15;;;;;;;4.57;2.20;;;17.70;83.30;;;;;;5108403;28;20019;-77
2022/08/14 00:54:42;;;;;;;2.88;2.22;;;17.70;83.40;;;;;;5103826;28;20027;-77
2022/08/14 00:57:08;;;;;;;2.40;2.20;;;17.70;83.70;;;;;;5102192;28;20029;-78
2022/08/14 00:59:34;;;;;;;2.28;1.90;;;17.70;84.20;;;;;;5098147;28;20092;-78
2022/08/14 01:02:00;;;;;;;3.47;2.25;;;17.70;84.40;;;;;;5095074;28;20031;-77
2022/08/14 01:04:30;;;;;;;2.00;1.90;;;17.60;84.60;;;;;;5117533;28;20095;-77
2022/08/14 01:06:57;;;;;;;3.28;2.72;;;17.50;85.00;;;;;;5111169;28;20031;-76
2022/08/14 01:09:23;;;;;;;2.45;2.00;;;17.50;85.70;;;;;;5111240;28;20034;-79
2022/08/14 01:11:49;;;;;;;2.88;2.17;;;17.50;86.00;;;;;;5115464;28;20023;-77
2022/08/14 01:14:16;;;;;;;2.30;2.20;;;17.40;86.50;;;;;;5116188;28;20028;-77
2022/08/14 01:16:42;;;;;;;2.72;2.40;;;17.40;86.90;;;;;;5125057;27;20051;-76
2022/08/14 01:21:52;;;;;;;2.45;2.20;;;17.40;87.50;;;;;;5136419;27;20096;-78
2022/08/14 01:24:20;;;;;;;2.65;2.38;;;17.30;88.30;;;;;;5136239;27;20027;-77
2022/08/14 01:26:46;;;;;;;2.78;2.10;;;17.30;89.10;;;;;;5135538;27;20031;-76
2022/08/14 01:29:12;;;;;;;2.08;1.98;;;17.20;89.40;;;;;;5136225;27;20028;-76
2022/08/14 01:31:53;;;;;;;2.08;1.88;;;17.20;89.90;;;;;;5133641;27;20043;-75
2022/08/14 01:34:22;;;;;;;4.97;2.10;;;17.10;90.20;;;;;;5135395;27;20031;-75
2022/08/14 01:36:49;;;;;;;2.33;2.13;;;17.10;90.80;;;;;;5132722;27;20055;-75
2022/08/14 01:39:16;;;;;;;3.03;2.03;;;17.00;91.20;;;;;;5135963;27;20387;-75
2022/08/14 01:41:51;;;;;;;2.92;2.55;;;16.90;91.40;;;;;;5104233;27;20039;-75
2022/08/14 01:44:17;;;;;;;3.33;2.35;;;16.90;91.70;;;;;;5135537;27;20536;-75
2022/08/14 01:46:44;;;;;;;3.25;2.20;;;16.80;92.20;;;;;;5131930;27;20035;-76
2022/08/14 01:49:14;;;;;;;2.53;2.33;;;16.80;92.50;;;;;;5134547;27;20110;-75
2022/08/14 01:51:40;;;;;;;2.10;2.00;;;16.70;92.90;;;;;;5116224;27;20463;-75
2022/08/14 01:54:12;;;;;;;3.50;2.20;;;16.70;93.30;;;;;;5132994;27;20023;-75
2022/08/14 01:56:39;;;;;;;2.63;2.30;;;16.70;93.50;;;;;;5135176;27;20110;-75
2022/08/14 01:59:18;;;;;;;2.25;2.05;;;16.70;93.90;;;;;;5125021;27;20024;-75
2022/08/14 02:01:46;;;;;;;3.05;2.28;;;16.70;94.00;;;;;;5114119;28;20172;-75
2022/08/14 02:04:11;;;;;;;3.28;2.40;;;16.60;94.00;;;;;;5127437;27;20468;-75
2022/08/14 02:06:37;;;;;;;2.47;2.28;;;16.60;94.30;;;;;;5123007;27;20043;-75
2022/08/14 02:09:08;;;;;;;2.58;2.38;;;16.60;94.60;;;;;;5096329;28;20479;-75
2022/08/14 02:11:34;;;;;;;4.68;2.75;;;16.50;94.80;;;;;;5128891;27;20030;-75
2022/08/14 02:14:11;;;;;;;2.80;2.45;;;16.50;95.00;;;;;;5135413;27;20035;-77
2022/08/14 02:16:43;;;;;;;3.17;2.60;;;16.40;95.20;;;;;;5132816;27;20456;-78
2022/08/14 02:19:13;;;;;;;2.92;2.63;;;16.40;95.50;;;;;;5133379;27;20024;-78
2022/08/14 02:21:40;;;;;;;2.47;2.20;;;16.30;95.70;;;;;;5134130;27;20058;-77
2022/08/14 02:24:06;;;;;;;3.40;2.55;;;16.30;95.90;;;;;;5116482;27;20385;-74
2022/08/14 02:26:38;;;;;;;2.75;2.30;;;16.30;96.00;;;;;;5134726;27;20031;-77
2022/08/14 02:29:12;;;;;;;2.35;2.15;;;16.30;96.20;;;;;;5114484;27;20384;-77
2022/08/14 02:31:42;;;;;;;2.45;2.17;;;16.20;96.30;;;;;;5113577;28;20346;-78
2022/08/14 02:34:19;;;;;;;2.35;2.15;;;16.20;96.50;;;;;;5117460;27;20030;-77
2022/08/14 02:36:49;;;;;;;3.67;2.40;;;16.20;96.60;;;;;;5133975;27;20798;-77
2022/08/14 02:39:15;;;;;;;2.55;2.00;;;16.20;96.90;;;;;;5134428;27;20490;-77
2022/08/14 02:41:42;;;;;;;2.40;2.17;;;16.20;97.00;;;;;;5133798;27;20023;-77
2022/08/14 02:44:09;;;;;;;2.83;2.30;;;16.20;97.10;;;;;;5133438;27;20026;-77
2022/08/14 02:46:43;;;;;;;3.20;2.22;;;16.10;97.20;;;;;;5131433;27;20477;-78
2022/08/14 02:49:10;;;;;;;2.30;2.10;;;16.10;97.40;;;;;;5134352;27;20022;-77
2022/08/14 02:51:36;;;;;;;3.45;2.50;;;16.00;97.40;;;;;;5115521;27;20419;-78
2022/08/14 02:54:03;;;;;;;2.38;2.17;;;15.90;98.00;;;;;;5113901;28;20030;-77
2022/08/14 02:56:28;;;;;;;2.50;2.30;;;15.90;98.00;;;;;;5113361;28;20081;-79
2022/08/14 02:58:56;;;;;;;2.20;2.10;;;15.90;98.10;;;;;;5121846;27;20449;-77
2022/08/14 03:01:23;;;;;;;2.72;2.50;;;15.80;98.20;;;;;;5132777;27;20573;-77
2022/08/14 03:03:50;;;;;;;3.33;2.45;;;15.80;98.50;;;;;;5116360;27;20034;-77
2022/08/14 03:06:24;;;;;;;2.63;2.42;;;15.80;98.70;;;;;;5121242;27;20088;-78
2022/08/14 03:08:52;;;;;;;2.55;2.17;;;15.80;98.90;;;;;;5133080;27;20113;-77
2022/08/14 03:11:18;;;;;;;3.92;2.45;;;15.80;98.80;;;;;;5126020;27;20368;-77
2022/08/14 03:13:50;;;;;;;2.75;2.50;;;15.80;98.90;;;;;;5115019;27;20463;-77
2022/08/14 03:16:21;;;;;;;2.63;2.33;;;15.90;99.00;;;;;;5133660;27;20384;-76
2022/08/14 03:18:48;;;;;;;3.17;2.40;;;15.80;98.90;;;;;;5130825;27;20380;-77
2022/08/14 03:21:17;;;;;;;2.60;2.40;;;15.80;99.00;;;;;;5133250;27;20038;-77
2022/08/14 03:23:45;;;;;;;2.65;2.38;;;15.80;99.20;;;;;;5092186;28;20020;-77
2022/08/14 03:26:14;;;;;;;2.20;2.00;;;15.70;99.30;;;;;;5092846;28;20158;-76
2022/08/14 03:28:48;;;;;;;1.95;1.85;;;15.70;99.50;;;;;;5092138;28;20016;-76
2022/08/14 03:31:15;;;;;;;3.05;2.75;;;15.60;99.60;;;;;;5093011;28;20031;-76
2022/08/14 03:33:42;;;;;;;2.50;2.30;;;15.60;99.60;;;;;;5092022;28;20020;-76
2022/08/14 03:36:13;;;;;;;3.38;2.08;;;15.50;99.70;;;;;;5097508;27;20031;-75
2022/08/14 03:38:44;;;;;;;3.03;2.28;;;15.50;99.90;;;;;;5115430;27;20027;-76
2022/08/14 03:41:15;;;;;;;2.58;2.30;;;15.40;99.90;;;;;;5113288;28;20028;-76
2022/08/14 03:43:49;;;;;;;2.30;2.10;;;15.40;99.90;;;;;;5094229;28;20035;-76
2022/08/14 03:46:15;;;;;;;2.83;2.60;;;15.40;99.90;;;;;;5121701;27;20106;-76
2022/08/14 03:48:42;;;;;;;2.50;2.30;;;15.30;99.90;;;;;;5132967;27;20058;-76
2022/08/14 03:51:12;;;;;;;2.78;2.30;;;15.30;99.90;;;;;;5133026;27;20440;-77
2022/08/14 03:53:40;;;;;;;2.53;2.33;;;15.30;99.90;;;;;;5119279;27;20043;-76
2022/08/14 03:56:12;;;;;;;3.85;3.00;;;15.30;99.90;;;;;;5112609;28;20036;-76
2022/08/14 03:58:44;;;;;;;2.35;2.15;;;15.30;99.90;;;;;;5111951;28;20077;-77
2022/08/14 04:01:11;;;;;;;2.70;2.50;;;15.30;99.90;;;;;;5112510;28;20046;-76
2022/08/14 04:03:37;;;;;;;5.85;2.38;;;15.30;99.90;;;;;;5121626;27;20034;-76
2022/08/14 04:06:04;;;;;;;3.42;2.28;;;15.30;99.90;;;;;;5126628;27;20019;-76
2022/08/14 04:08:34;;;;;;;2.53;2.25;;;15.30;99.90;;;;;;5112030;28;20046;-79
2022/08/14 04:11:01;;;;;;;6.60;2.40;;;15.30;99.90;;;;;;5111952;27;20027;-77
2022/08/14 04:13:26;;;;;;;4.00;2.75;;;15.30;99.90;;;;;;5134038;27;20024;-77
2022/08/14 04:15:52;;;;;;;2.45;2.25;;;15.40;99.90;;;;;;5132169;27;20058;-77
2022/08/14 04:18:18;;;;;;;2.67;2.22;;;15.40;99.90;;;;;;5133545;28;20466;-77
2022/08/14 04:20:43;;;;;;;3.13;2.40;;;15.50;99.90;;;;;;5133951;28;20054;-77
2022/08/14 04:23:09;;;;;;;2.38;2.17;;;15.50;99.90;;;;;;5133678;28;20024;-77
2022/08/14 04:25:36;;;;;;;3.15;2.50;;;15.50;99.90;;;;;;5121127;28;20383;-81
2022/08/14 04:28:06;;;;;;;2.83;2.35;;;15.50;99.90;;;;;;5112527;28;20051;-78
2022/08/14 04:30:38;;;;;;;2.60;2.40;;;15.40;99.90;;;;;;5112663;28;20024;-78
2022/08/14 04:33:06;;;;;;;3.05;2.65;;;15.40;99.90;;;;;;5112824;28;20024;-77
2022/08/14 04:35:33;;;;;;;2.60;2.40;;;15.40;99.90;;;;;;5129016;28;20500;-80
2022/08/14 04:43:37;;;;;;;3.30;2.72;;;15.50;99.90;;;;;;5127751;27;20387;-75
2022/08/14 04:46:04;;;;;;;2.25;2.05;;;15.50;99.90;;;;;;5116305;28;20028;-75
2022/08/14 04:48:30;;;;;;;3.25;2.72;;;15.60;99.90;;;;;;5100069;27;20067;-75
2022/08/14 04:50:55;;;;;;;2.28;2.08;;;15.70;99.90;;;;;;5135954;27;20043;-75
2022/08/14 04:53:24;;;;;;;4.15;2.60;;;15.80;99.90;;;;;;5136882;27;20038;-75
2022/08/14 04:55:50;;;;;;;3.22;2.85;;;15.90;99.90;;;;;;5135494;27;20062;-75
2022/08/14 04:58:34;;;;;;;2.65;2.30;;;16.00;99.90;;;;;;5135037;27;20098;-75
2022/08/14 05:01:02;;;;;;;3.25;2.03;;;16.10;99.90;;;;;;5114292;28;20027;-76
2022/08/14 05:03:31;;;;;;;2.75;2.25;;;16.20;99.90;;;;;;5115580;28;20072;-77
2022/08/14 05:06:00;;;;;;;2.40;2.20;;;16.30;99.90;;;;;;5114936;28;20054;-77
2022/08/14 05:08:28;;;;;;;2.85;2.60;;;16.40;99.70;;;;;;5097746;28;20039;-77
2022/08/14 05:10:59;;;;;;;2.95;2.47;;;16.60;99.60;;;;;;5114867;28;21070;-76
2022/08/14 05:13:27;;;;;;;5.68;2.30;;;16.70;99.50;;;;;;5131167;27;20050;-76
2022/08/14 05:15:57;;;;;;;2.47;2.28;;;16.70;99.10;;;;;;5134957;27;20047;-75
2022/08/14 05:18:25;;;;;;;2.78;2.58;;;16.80;98.80;;;;;;5133954;27;20023;-75
2022/08/14 05:20:53;;;;;;;3.22;2.92;;;16.90;98.60;;;;;;5135481;27;20023;-76
2022/08/14 05:23:24;;;;;;;2.67;2.47;;;17.10;98.30;;;;;;5136167;27;20027;-76
2022/08/14 05:25:54;;;;;;;6.63;2.95;;;17.20;98.20;;;;;;5135349;27;20054;-76
2022/08/14 05:28:21;;;;;;;4.68;3.03;;;17.30;97.90;;;;;;5133620;27;20034;-76
2022/08/14 05:30:50;;;;;;;3.00;2.70;;;17.40;97.80;;;;;;5135195;27;20031;-78
2022/08/14 05:33:17;;;;;;;5.40;2.90;;;17.50;97.60;;;;;;5136000;27;20368;-77
2022/08/14 05:35:45;;;;;;;4.35;3.03;;;17.60;97.40;;;;;;5132658;27;20460;-77
2022/08/14 05:38:14;;;;;;;5.78;3.47;;;17.70;97.40;;;;;;5136387;27;20019;-77
2022/08/14 05:40:40;;;;;;;5.93;3.63;;;17.70;97.20;;;;;;5135073;27;20015;-81
2022/08/14 05:43:06;;;;;;;6.82;4.40;;;17.80;97.30;;;;;;5123658;27;20073;-77
2022/08/14 05:45:34;;;;;;;5.45;3.80;;;17.90;97.10;;;;;;5116036;27;20027;-79
2022/08/14 05:48:00;;;;;;;5.60;4.13;;;18.00;96.90;;;;;;5112562;28;20020;-79
2022/08/14 05:50:26;;;;;;;3.67;3.38;;;18.00;97.00;;;;;;5096344;28;20016;-78
2022/08/14 05:52:52;;;;;;;4.10;3.47;;;18.10;96.80;;;;;;5126234;27;20030;-78
2022/08/14 05:55:19;;;;;;;4.28;3.58;;;18.10;96.50;;;;;;5128710;27;20027;-77
2022/08/14 05:57:53;;;;;;;16.60;4.07;;;18.10;96.30;;;;;;5114206;28;20035;-78
2022/08/14 06:00:25;;;;;;;4.82;3.58;;;18.10;96.70;;;;;;5124417;27;20034;-79
2022/08/14 06:02:51;;;;;;;5.45;4.00;;;18.20;96.90;;;;;;5125378;27;20444;-79
2022/08/14 06:05:16;;;;;;;5.95;3.55;;;18.30;97.00;;;;;;5135326;27;20030;-79
2022/08/14 06:07:42;;;;;;;5.95;3.67;;;18.30;97.10;;;;;;5112676;27;20027;-80
2022/08/14 06:10:09;;;;;;;5.30;3.67;;;18.30;97.20;;;;;;5089972;28;20439;-81
2022/08/14 06:12:36;;;;;;;5.78;3.58;;;18.30;96.80;;;;;;5114231;27;20127;-79
2022/08/14 06:15:03;;;;;;;4.55;3.40;;;18.40;96.70;;;;;;5117580;27;20027;-80
2022/08/14 06:17:28;;;;;;;3.80;3.35;;;18.50;96.40;;;;;;5118827;27;20051;-80
2022/08/14 06:19:54;;;;;;;4.72;3.45;;;18.60;96.20;;;;;;5121471;27;20479;-79
2022/08/14 06:22:19;;;;;;;5.72;3.55;;;18.60;96.10;;;;;;5128009;27;20031;-81
2022/08/14 06:24:45;;;;;;;4.53;3.15;;;18.70;96.40;;;;;;5116559;27;20495;-82
2022/08/14 06:27:11;;;;;;;6.82;3.28;;;18.70;96.30;;;;;;5110558;28;20439;-81
2022/08/14 06:29:37;;;;;;;9.50;3.47;;;18.80;96.30;;;;;;5121971;27;20027;-83
2022/08/14 06:32:04;;;;;;;4.53;4.00;;;18.90;95.80;;;;;;5103010;27;20032;-82
2022/08/14 06:34:30;;;;;;;4.65;3.65;;;19.10;95.30;;;;;;5128464;27;20065;-81
2022/08/14 06:36:55;;;;;;;3.97;3.08;;;19.30;94.60;;;;;;5133498;27;20055;-82
2022/08/14 06:39:22;;;;;;;5.30;3.80;;;19.40;94.40;;;;;;5128128;27;20031;-82
2022/08/14 06:41:48;;;;;;;6.28;3.40;;;19.60;93.90;;;;;;5126362;27;20395;-81
2022/08/14 06:44:14;;;;;;;3.53;3.22;;;19.80;93.40;;;;;;5129943;27;20027;-81
2022/08/14 06:46:39;;;;;;;3.35;2.78;;;19.90;93.20;;;;;;5117470;27;20029;-82
2022/08/14 06:49:05;;;;;;;8.75;3.22;;;20.00;92.90;;;;;;5133773;27;20027;-80
2022/08/14 06:51:32;;;;;;;5.10;3.72;;;20.20;92.40;;;;;;5124461;27;20180;-78
2022/08/14 06:53:57;;;;;;;4.10;3.35;;;20.40;92.30;;;;;;5130765;27;20129;-79
2022/08/14 06:56:23;;;;;;;5.80;3.70;;;20.60;92.10;;;;;;5130617;27;20516;-84
2022/08/14 06:58:49;;;;;;;4.60;3.65;;;20.70;92.00;;;;;;5128525;27;20161;-88
2022/08/14 07:06:43;;;;;;;3.97;3.28;;;20.90;91.40;;;;;;5120757;27;20124;-92
2022/08/14 07:09:10;;;;;;;4.75;3.42;;;21.00;90.90;;;;;;5129344;27;20626;-80
2022/08/14 07:11:36;;;;;;;3.50;3.00;;;21.00;90.80;;;;;;5116829;27;20035;-86
2022/08/14 07:14:02;;;;;;;4.00;3.58;;;21.00;90.70;;;;;;5127234;27;20096;-81
2022/08/14 07:16:28;;;;;;;6.00;3.40;;;21.10;90.90;;;;;;5112716;27;20438;-83
2022/08/14 07:18:53;;;;;;;3.13;2.83;;;21.40;90.20;;;;;;5106331;28;20188;-81
2022/08/14 07:21:19;;;;;;;6.60;2.88;;;21.50;87.60;;;;;;5113234;28;20038;-83
2022/08/14 07:23:45;;;;;;;3.47;2.58;;;21.70;88.00;;;;;;5092427;28;20134;-84
2022/08/14 07:26:12;;;;;;;3.53;2.72;;;21.80;87.20;;;;;;5093543;28;20113;-80
2022/08/14 07:28:39;;;;;;;7.65;2.65;;;21.90;85.20;;;;;;5110787;28;20039;-87
2022/08/14 07:31:06;;;;;;;3.97;2.65;;;22.20;83.40;;;;;;5110012;28;20088;-83
2022/08/14 07:33:37;;;;;;;2.50;2.30;;;22.30;82.90;;;;;;5105805;28;20043;-91
2022/08/14 07:36:06;;;;;;;3.05;2.22;;;22.60;81.20;;;;;;5080700;28;20690;-86
2022/08/14 07:38:32;;;;;;;3.65;2.50;;;22.70;80.50;;;;;;5075222;28;20042;-89
2022/08/14 07:40:58;;;;;;;2.03;1.88;;;22.90;78.60;;;;;;5092333;28;20028;-89
2022/08/14 07:43:24;;;;;;;2.25;2.10;;;23.10;76.40;;;;;;5105342;28;20028;-88
2022/08/14 07:45:50;;;;;;;2.75;2.00;;;23.20;76.20;;;;;;5105262;28;20028;-86
2022/08/14 07:48:16;;;;;;;2.90;2.25;;;23.30;75.10;;;;;;5106146;28;20400;-85
2022/08/14 07:50:42;;;;;;;1.75;1.65;;;23.40;74.50;;;;;;5112496;28;20031;-83
2022/08/14 07:53:08;;;;;;;2.35;2.08;;;23.70;74.00;;;;;;5104554;28;20102;-80
2022/08/14 07:55:34;;;;;;;4.75;1.88;;;23.90;72.80;;;;;;5098417;28;20028;-81
2022/08/14 07:58:00;;;;;;;3.80;2.10;;;24.00;72.30;;;;;;5078147;28;20024;-82
2022/08/14 08:00:27;;;;;;;2.20;2.00;;;24.10;71.90;;;;;;5098665;28;20020;-82
2022/08/14 08:02:54;;;;;;;2.60;2.35;;;24.20;71.50;;;;;;5091056;28;20461;-84
2022/08/14 08:05:25;;;;;;;3.65;2.10;;;24.20;71.40;;;;;;5086981;28;20482;-80
2022/08/14 08:07:52;;;;;;;3.15;2.40;;;24.40;71.20;;;;;;5106960;28;20020;-81
2022/08/14 08:10:31;;;;;;;3.97;2.40;;;24.50;72.40;;;;;;5110371;28;20059;-82
2022/08/14 08:13:07;;;;;;;4.05;2.72;;;24.70;72.00;;;;;;5072749;28;20077;-81
2022/08/14 08:15:36;;;;;;;3.03;2.38;;;24.90;70.90;;;;;;5109242;28;20024;-83
2022/08/14 08:18:04;;;;;;;2.20;2.00;;;25.10;70.80;;;;;;5117630;27;20040;-82
2022/08/14 08:20:34;;;;;;;3.45;2.42;;;25.10;70.30;;;;;;5129376;28;20019;-82
2022/08/14 08:23:00;;;;;;;;;;;25.30;70.50;;;;;;5117413;28;20522;-81
2022/08/14 08:25:29;;;;;;;2.53;2.33;;;25.30;69.30;;;;;;5120558;28;19908;-82
2022/08/14 08:27:59;;;;;;;4.75;2.30;;;25.50;68.30;;;;;;5111452;28;20035;-82
2022/08/14 08:30:26;;;;;;;3.10;2.45;;;25.50;67.80;;;;;;5099356;28;20069;-81
2022/08/14 08:32:54;;;;;;;2.17;2.08;;;25.70;67.60;;;;;;5111438;28;20023;-81
2022/08/14 08:35:25;;;;;;;2.10;2.00;;;25.80;67.40;;;;;;5113012;28;20030;-82
2022/08/14 08:37:52;;;;;;;4.07;2.22;;;25.90;66.70;;;;;;5122316;28;20031;-81
2022/08/14 08:40:35;;;;;;;3.58;2.40;;;26.10;67.80;;;;;;5111095;28;20036;-81
2022/08/14 08:43:03;;;;;;;2.55;2.30;;;26.20;67.30;;;;;;5111310;28;20027;-87
2022/08/14 08:45:28;;;;;;;4.57;2.20;;;26.20;67.40;;;;;;5112503;28;20027;-80
2022/08/14 08:47:54;;;;;;;2.80;2.28;;;26.20;65.20;;;;;;5124955;28;20032;-81
2022/08/14 08:50:29;;;;;;;2.28;2.08;;;26.40;64.80;;;;;;5112127;28;20119;-80
2022/08/14 08:52:56;;;;;;;2.65;2.45;;;26.40;64.30;;;;;;5095923;28;20387;-81
2022/08/14 08:55:30;;;;;;;6.65;2.58;;;26.40;63.70;;;;;;5119382;28;20080;-79
2022/08/14 08:57:58;;;;;;;4.10;2.00;;;26.60;62.50;;;;;;5110756;28;20369;-75
2022/08/14 09:00:25;;;;;;;10.38;2.42;;;26.70;62.20;;;;;;5112007;28;20493;-79
2022/08/14 09:02:56;;;;;;;2.17;1.90;;;26.80;62.50;;;;;;5112952;28;20377;-80
2022/08/14 09:05:23;;;;;;;2.28;2.17;;;26.90;62.10;;;;;;5104918;28;20084;-82
2022/08/14 09:07:48;;;;;;;4.43;1.83;;;27.00;62.20;;;;;;5111338;28;20453;-80
2022/08/14 09:10:14;;;;;;;2.90;2.63;;;27.20;61.20;;;;;;5113806;28;20042;-86
2022/08/14 09:12:39;;;;;;;3.35;2.42;;;27.40;61.30;;;;;;5101984;28;20027;-80
2022/08/14 09:15:08;;;;;;;4.32;2.30;;;27.60;60.60;;;;;;5110663;28;20417;-81
2022/08/14 09:17:34;;;;;;;2.30;2.10;;;27.70;60.90;;;;;;5118437;28;20614;-81
2022/08/14 09:20:00;;;;;;;2.15;1.88;;;27.80;60.80;;;;;;5112244;28;20035;-81
2022/08/14 09:22:27;;;;;;;2.63;2.35;;;27.90;60.90;;;;;;5098151;28;20028;-80
2022/08/14 09:24:54;;;;;;;5.55;2.53;;;28.00;60.60;;;;;;5121027;27;20101;-81
2022/08/14 09:27:19;;;;;;;3.65;2.03;;;28.10;60.50;;;;;;5116304;28;20032;-81
2022/08/14 09:29:46;;;;;;;3.70;2.70;;;28.20;60.00;;;;;;5130213;27;20019;-79
2022/08/14 09:32:19;;;;;;;5.18;2.45;;;28.20;59.80;;;;;;5127751;27;20027;-82
2022/08/14 09:35:03;;;;;;;2.80;2.60;;;28.20;59.70;;;;;;5108875;28;20032;-83
2022/08/14 09:37:54;;;;;;;3.92;2.38;;;28.20;59.50;;;;;;5118484;28;20023;-83
2022/08/14 09:40:41;;;;;;;;;;;28.20;58.90;;;;;;5116479;27;20027;-81
2022/08/14 09:43:12;;;;;;;2.72;2.53;;;28.20;59.00;;;;;;5118333;27;20006;-80
2022/08/14 09:45:46;;;;;;;2.90;2.70;;;28.40;58.70;;;;;;5098506;28;20026;-83
2022/08/14 09:48:21;;;;;;;5.00;2.65;;;28.50;58.50;;;;;;5104232;28;20628;-84
2022/08/14 09:50:49;;;;;;;5.72;2.50;;;28.60;58.70;;;;;;5114604;28;20039;-82
2022/08/14 09:53:35;;;;;;;2.63;2.42;;;28.80;59.50;;;;;;5118240;27;20102;-82
2022/08/14 09:56:03;;;;;;;3.17;2.63;;;29.00;57.80;;;;;;5112003;27;20092;-81
2022/08/14 09:58:44;;;;;;;6.00;1.98;;;29.10;57.20;;;;;;5123555;27;20434;-81
2022/08/14 10:01:11;;;;;;;3.25;2.20;;;29.20;57.60;;;;;;5127422;27;20058;-78
2022/08/14 10:03:47;;;;;;;4.25;2.28;;;29.20;57.20;;;;;;5125149;27;20019;-81
2022/08/14 10:06:23;;;;;;;2.35;2.15;;;29.20;57.10;;;;;;5115879;27;20036;-82
2022/08/14 10:09:03;;;;;;;2.38;2.28;;;29.20;57.10;;;;;;5117709;27;20019;-89
2022/08/14 10:11:34;;;;;;;2.45;2.30;;;29.40;56.90;;;;;;5123191;27;20016;-82
2022/08/14 10:14:11;;;;;;;4.40;2.75;;;29.30;56.70;;;;;;5116847;27;20032;-84
2022/08/14 10:16:42;;;;;;;2.22;2.13;;;29.30;56.70;;;;;;5117156;27;20145;-84
2022/08/14 10:19:11;;;;;;;3.70;2.58;;;29.30;55.90;;;;;;5100876;28;20504;-81
2022/08/14 10:21:40;;;;;;;2.42;2.33;;;29.40;56.00;;;;;;5080809;28;20058;-83
2022/08/14 10:24:08;;;;;;;3.40;2.78;;;29.50;55.90;;;;;;5082484;28;20027;-81
2022/08/14 10:26:35;;;;;;;2.20;2.10;;;29.60;55.60;;;;;;5098168;28;20040;-82
2022/08/14 10:29:10;;;;;;;4.97;2.50;;;29.80;55.80;;;;;;5081717;28;20028;-82
2022/08/14 10:31:37;;;;;;;3.10;2.72;;;29.90;55.10;;;;;;5095305;28;20024;-82
2022/08/14 10:34:10;;;;;;;2.65;2.45;;;30.00;55.10;;;;;;5092707;28;20016;-83
2022/08/14 10:36:41;;;;;;;2.70;2.45;;;29.90;54.20;;;;;;5093102;28;20039;-82
2022/08/14 10:39:16;;;;;;;3.45;2.88;;;29.90;55.10;;;;;;5074137;28;20028;-85
2022/08/14 10:41:44;;;;;;;2.80;2.60;;;29.90;54.40;;;;;;5099552;28;20045;-84
2022/08/14 10:44:15;;;;;;;3.10;2.90;;;30.00;54.80;;;;;;5098190;28;20037;-83
2022/08/14 10:46:51;;;;;;;5.00;2.58;;;30.00;54.10;;;;;;5083863;28;20038;-82
2022/08/14 10:49:19;;;;;;;2.80;2.60;;;30.00;53.90;;;;;;5097924;28;20028;-84
2022/08/14 10:52:24;;;;;;;3.75;2.90;;;30.10;54.10;;;;;;5093210;28;20126;-84
2022/08/14 10:54:51;;;;;;;3.72;2.35;;;30.30;53.80;;;;;;5050899;28;20431;-82
2022/08/14 10:57:24;;;;;;;2.47;2.28;;;30.40;53.00;;;;;;5092340;28;20122;-81
2022/08/14 10:59:55;;;;;;;3.97;2.63;;;30.30;53.00;;;;;;5090294;28;20024;-83
2022/08/14 11:02:36;;;;;;;4.20;2.50;;;30.40;53.10;;;;;;5091554;28;20465;-83
2022/08/14 11:05:11;;;;;;;2.75;2.55;;;30.40;53.20;;;;;;5083526;28;20430;-83
2022/08/14 11:07:38;;;;;;;3.25;2.50;;;30.40;52.90;;;;;;5105756;28;20081;-83
2022/08/14 11:10:10;;;;;;;3.03;2.72;;;30.50;52.60;;;;;;5105849;28;20024;-82
2022/08/14 11:12:48;;;;;;;3.33;3.00;;;30.50;52.90;;;;;;5079129;28;20465;-85
2022/08/14 11:15:19;;;;;;;3.15;2.75;;;30.50;52.90;;;;;;5092601;28;20036;-83
2022/08/14 11:17:46;;;;;;;4.18;2.90;;;30.70;51.80;;;;;;5124945;27;20046;-86
2022/08/14 11:20:13;;;;;;;2.78;2.58;;;30.80;51.70;;;;;;5130845;27;20031;-85
2022/08/14 11:22:42;;;;;;;2.88;2.67;;;30.90;51.80;;;;;;5133758;27;20027;-84
2022/08/14 11:25:12;;;;;;;3.40;3.10;;;30.90;52.30;;;;;;5131253;27;20022;-81
2022/08/14 11:27:40;;;;;;;2.90;2.70;;;31.10;52.00;;;;;;5134746;27;20037;-82
2022/08/14 11:30:12;;;;;;;4.97;2.70;;;31.30;51.90;;;;;;5132687;27;20430;-83
2022/08/14 11:32:41;;;;;;;6.07;2.70;;;31.50;51.60;;;;;;5132016;27;20320;-85
2022/08/14 11:35:12;;;;;;;3.10;2.80;;;31.50;51.30;;;;;;5112717;27;20080;-85
2022/08/14 11:37:52;;;;;;;3.08;2.78;;;31.50;50.90;;;;;;5133363;27;20027;-81
2022/08/14 11:40:18;;;;;;;5.55;2.80;;;31.60;50.60;;;;;;5131903;27;20050;-84
2022/08/14 11:42:46;;;;;;;3.45;3.15;;;31.70;49.80;;;;;;5133868;27;20046;-84
2022/08/14 11:45:13;;;;;;;2.88;2.60;;;31.60;50.20;;;;;;5133571;27;20116;-87
2022/08/14 11:47:39;;;;;;;3.67;3.17;;;31.70;50.10;;;;;;5132397;27;20095;-86
2022/08/14 11:50:17;;;;;;;4.47;2.58;;;31.70;50.70;;;;;;5114884;27;20035;-89
2022/08/14 11:52:43;;;;;;;2.80;2.60;;;31.60;50.00;;;;;;5134159;27;20098;-91
2022/08/14 11:55:12;;;;;;;3.20;2.90;;;31.70;50.20;;;;;;5133606;27;20030;-88
2022/08/14 11:57:40;;;;;;;3.28;3.05;;;31.70;50.00;;;;;;5119453;27;20095;-89
2022/08/14 12:00:11;;;;;;;4.78;2.88;;;31.70;50.00;;;;;;5133487;28;20051;-91
2022/08/14 12:02:50;;;;;;;4.30;2.60;;;31.60;49.00;;;;;;5129805;28;20024;-90
2022/08/14 12:05:15;;;;;;;3.00;2.70;;;31.70;49.40;;;;;;5109976;27;20341;-90
2022/08/14 12:07:48;;;;;;;5.30;2.58;;;31.80;50.10;;;;;;5113832;28;20038;-83
2022/08/14 12:10:17;;;;;;;3.55;2.13;;;31.80;48.20;;;;;;5112676;28;20053;-89
2022/08/14 12:12:43;;;;;;;3.30;2.42;;;31.80;48.50;;;;;;5113724;28;20117;-87
2022/08/14 12:15:10;;;;;;;3.15;2.95;;;32.00;48.50;;;;;;5094499;28;20487;-84
2022/08/14 12:17:52;;;;;;;4.03;3.03;;;32.10;48.50;;;;;;5112664;28;20130;-84
2022/08/14 12:20:17;;;;;;;4.22;2.53;;;32.30;48.30;;;;;;5098940;28;20040;-90
2022/08/14 12:22:44;;;;;;;2.95;2.63;;;32.50;48.40;;;;;;5109457;28;20034;-88
2022/08/14 12:25:19;;;;;;;4.00;2.80;;;32.30;49.50;;;;;;5133182;28;20075;-86
2022/08/14 12:27:50;;;;;;;2.67;2.47;;;32.30;48.80;;;;;;5112907;28;20102;-89
2022/08/14 12:30:35;;;;;;;3.15;2.88;;;32.30;47.90;;;;;;5133237;28;20020;-93
2022/08/14 12:33:04;;;;;;;2.58;2.38;;;32.40;48.60;;;;;;5133981;28;20019;-88
2022/08/14 12:35:41;;;;;;;2.50;2.30;;;32.50;47.90;;;;;;5112475;28;20120;-78
2022/08/14 12:38:09;;;;;;;6.45;2.63;;;32.50;47.40;;;;;;5110016;28;20067;-78
2022/08/14 12:40:51;;;;;;;2.40;2.20;;;32.70;47.00;;;;;;5126841;28;20031;-77
2022/08/14 12:43:20;;;;;;;2.65;2.45;;;32.90;46.50;;;;;;5129542;28;20030;-77
2022/08/14 12:45:50;;;;;;;3.00;2.17;;;33.10;46.40;;;;;;5132764;28;20049;-76
2022/08/14 12:48:18;;;;;;;2.75;2.42;;;33.30;46.10;;;;;;5125118;28;20023;-79
2022/08/14 12:50:44;;;;;;;2.70;2.30;;;33.50;45.50;;;;;;5114858;28;20040;-80
2022/08/14 12:53:11;;;;;;;3.53;2.17;;;33.50;44.70;;;;;;5113245;28;20130;-76
2022/08/14 12:55:42;;;;;;;4.30;2.78;;;33.50;44.60;;;;;;5132840;28;20023;-78
2022/08/14 12:58:09;;;;;;;3.42;2.65;;;33.50;44.80;;;;;;5130721;27;20023;-82
2022/08/14 13:00:37;;;;;;;2.65;2.28;;;33.50;44.80;;;;;;5098099;28;20392;-82
2022/08/14 13:03:04;;;;;;;2.58;2.38;;;33.60;44.10;;;;;;5109643;28;20024;-80
2022/08/14 13:05:33;;;;;;;2.10;2.00;;;33.60;44.30;;;;;;5095490;28;20388;-80
2022/08/14 13:08:03;;;;;;;3.47;2.20;;;33.60;44.30;;;;;;5130421;27;20034;-80
2022/08/14 13:10:31;;;;;;;;;;;33.60;44.50;;;;;;5137513;27;20038;-81